Pago Pago, American Samoa
Current Conditions -  °F | °C
As of 8:52 AM on Tuesday 21 Oct 2014 (Local Time) from NSTU Reporting Station
Broken Clouds Broken Clouds  
Wind Chill: 83°   Ceiling: 10000
Heat Index: 89°   Visibility: 12mi
Dew Point: 73°   Wind: 13mph
Humidity: 70%   Direction: 100°E
Pressure: 29.9"   Gusts: NA
Location:  14.33°S, 170.72°W
Report Text: NSTU 211952Z 10011KT 12SM SCT030 BKN100 BKN200 29/23 A2990 RMKSLP127 T02860227
Loading
Personal Weather Stations






























Interactive Weather Map
Tropical Storm Tracking
New forecast layout! Learn more

10-Day Weather Forecast

Advertisements
Track Severe Weather on mobile